ěÝzenÝ letovÚho provozu ╚eskÚ republiky
Letiste: LKCV Aktualizace: 24.09.2020 16:30:26  UTC
 METAR LKCV 24.09. 16:30 ...
METAR LKCV 241630Z 18004KT CAVOK 21/14 Q1007 NOSIG RMK BLU BLU=
 TAF LKCV 24.09. 11:00 ...
TAF LKCV 241100Z 2412/2512 24007KT CAVOK      PROB30 TEMPO 2412/2416 7000 SHRA SCT035TCU      BECMG 2420/2422 14010KT      BECMG 2500/2503 BKN030      TEMPO 2502/2512 15016G28KT 5000 RA BKN015      PROB30 TEMPO 2508/2512 4000 TSRA BKN014CB=